createdAt,value
2022-12-12T00:01:20.942Z,99943.05
2022-12-12T00:03:52.432Z,99929.66
2022-12-12T00:06:21.543Z,99930.27
2022-12-12T00:08:49.608Z,99921.55
2022-12-12T00:11:17.969Z,99915.64
2022-12-12T00:13:45.754Z,99910.54
2022-12-12T00:16:13.658Z,99912.37
2022-12-12T00:18:42.936Z,99906.88
2022-12-12T00:21:18.410Z,99904.99
2022-12-12T00:23:47.069Z,99912.64
2022-12-12T00:26:30.935Z,99906.92
2022-12-12T00:29:00.298Z,99905.17
2022-12-12T00:31:29.284Z,99898.23
2022-12-12T00:33:57.248Z,99902.35
2022-12-12T00:36:28.585Z,99905.33
2022-12-12T00:38:57.745Z,99901.70
2022-12-12T00:41:26.201Z,99906.34
2022-12-12T00:43:54.210Z,99909.44
2022-12-12T00:46:24.803Z,99907.41
2022-12-12T00:48:58.869Z,99908.95
2022-12-12T00:51:29.409Z,99907.35
2022-12-12T00:53:58.795Z,99915.80
2022-12-12T00:56:28.957Z,99915.50
2022-12-12T00:58:56.795Z,99915.71
2022-12-12T01:01:27.841Z,99915.23
2022-12-12T01:03:56.145Z,99910.75
2022-12-12T01:06:24.494Z,99914.98
2022-12-12T01:08:52.992Z,99920.10
2022-12-12T01:11:21.107Z,99918.52
2022-12-12T01:13:52.294Z,99922.77
2022-12-12T01:16:21.929Z,99915.55
2022-12-12T01:18:50.502Z,99920.06
2022-12-12T01:21:20.246Z,99918.46
2022-12-12T01:23:48.572Z,99918.70
2022-12-12T01:26:20.176Z,99910.89
2022-12-12T01:28:48.368Z,99912.89
2022-12-12T01:31:16.876Z,99908.93
2022-12-12T01:33:46.213Z,99912.64
2022-12-12T01:36:16.657Z,99916.10
2022-12-12T01:38:48.873Z,99917.23
2022-12-12T01:41:17.841Z,99915.13
2022-12-12T01:43:46.685Z,99916.48
2022-12-12T01:46:33.395Z,99920.31
2022-12-12T01:49:04.737Z,99922.30
2022-12-12T01:51:33.937Z,99921.23
2022-12-12T01:54:07.212Z,99922.54
2022-12-12T01:56:36.318Z,99919.63
2022-12-12T01:59:08.598Z,99915.97
2022-12-12T02:01:37.965Z,99915.25
2022-12-12T02:04:07.942Z,99911.60
2022-12-12T02:06:35.716Z,99917.17
2022-12-12T02:09:07.984Z,99919.58
2022-12-12T02:11:42.581Z,99922.73
2022-12-12T02:14:11.120Z,99920.85
2022-12-12T02:17:09.974Z,99916.04
2022-12-12T02:19:52.902Z,99919.34
2022-12-12T02:22:39.477Z,99916.52
2022-12-12T02:25:37.330Z,99913.31
2022-12-12T02:28:38.735Z,99914.34
2022-12-12T02:31:45.070Z,99915.36
2022-12-12T02:34:32.266Z,99922.37
2022-12-12T02:37:20.738Z,99919.67
2022-12-12T02:39:54.535Z,99918.11
2022-12-12T02:42:44.553Z,99920.11
2022-12-12T02:45:34.795Z,99924.47
2022-12-12T02:48:12.859Z,99926.84
2022-12-12T02:50:43.771Z,99926.94
2022-12-12T02:53:11.709Z,99927.96
2022-12-12T02:55:39.559Z,99928.08
2022-12-12T02:58:07.349Z,99929.49
2022-12-12T03:00:55.275Z,99925.67
2022-12-12T03:03:53.803Z,99926.63
2022-12-12T03:06:55.849Z,99922.93
2022-12-12T03:09:41.568Z,99923.40
2022-12-12T03:13:02.043Z,99928.25
2022-12-12T03:15:54.817Z,99926.67
2022-12-12T03:18:27.872Z,99930.27
2022-12-12T03:21:29.979Z,99931.26
2022-12-12T03:24:03.384Z,99929.64
2022-12-12T03:26:42.956Z,99920.40
2022-12-12T03:29:25.660Z,99916.52
2022-12-12T03:32:03.937Z,99921.95
2022-12-12T03:34:38.248Z,99919.80
2022-12-12T03:37:26.583Z,99919.52
2022-12-12T03:40:08.110Z,99912.10
2022-12-12T03:42:50.014Z,99906.73
2022-12-12T03:45:25.837Z,99908.36
2022-12-12T03:48:03.068Z,99912.29
2022-12-12T03:50:36.543Z,99909.11
2022-12-12T03:53:11.676Z,99907.61
2022-12-12T03:55:47.271Z,99904.57
2022-12-12T03:59:00.817Z,99903.77
2022-12-12T04:01:42.561Z,99905.46
2022-12-12T04:04:41.051Z,99906.24
2022-12-12T04:07:33.252Z,99906.06
2022-12-12T04:10:19.714Z,99908.65
2022-12-12T04:13:13.723Z,99899.98
2022-12-12T04:15:59.997Z,99900.23
2022-12-12T04:18:55.552Z,99901.48
2022-12-12T04:22:02.042Z,99905.25
2022-12-12T04:24:46.573Z,99899.92
2022-12-12T04:27:22.239Z,99894.47
2022-12-12T04:30:03.906Z,99896.83
2022-12-12T04:32:40.886Z,99892.05
2022-12-12T04:35:14.907Z,99894.83
2022-12-12T04:37:48.085Z,99893.80
2022-12-12T04:40:21.857Z,99895.13
2022-12-12T04:42:58.225Z,99896.58
2022-12-12T04:45:35.764Z,99895.14
2022-12-12T04:48:08.597Z,99901.29
2022-12-12T04:50:38.587Z,99896.98
2022-12-12T04:53:16.584Z,99892.40
2022-12-12T04:55:55.200Z,99889.71
2022-12-12T04:58:23.725Z,99888.02
2022-12-12T05:01:53.388Z,99888.85
2022-12-12T05:04:30.026Z,99889.98
2022-12-12T05:07:07.318Z,99894.67
2022-12-12T05:09:36.041Z,99897.17
2022-12-12T05:12:03.927Z,99891.74
2022-12-12T05:14:32.056Z,99889.05
2022-12-12T05:17:06.521Z,99885.59
2022-12-12T05:19:34.578Z,99884.20
2022-12-12T05:22:03.189Z,99878.86
2022-12-12T05:24:32.018Z,99886.05
2022-12-12T05:27:01.385Z,99893.17
2022-12-12T05:29:29.429Z,99892.31
2022-12-12T05:31:57.451Z,99891.66
2022-12-12T05:34:25.849Z,99896.77
2022-12-12T05:36:53.873Z,99894.56
2022-12-12T05:39:22.971Z,99893.08
2022-12-12T05:41:53.721Z,99894.54
2022-12-12T05:44:22.372Z,99892.30
2022-12-12T05:46:50.357Z,99899.34
2022-12-12T05:49:19.056Z,99901.84
2022-12-12T05:51:46.868Z,99903.13
2022-12-12T05:54:14.879Z,99907.21
2022-12-12T05:56:42.809Z,99901.39
2022-12-12T05:59:10.916Z,99897.65
2022-12-12T06:01:38.815Z,99901.05
2022-12-12T06:04:08.122Z,99901.13
2022-12-12T06:06:36.422Z,99901.02
2022-12-12T06:09:04.392Z,99900.55
2022-12-12T06:11:32.487Z,99901.90
2022-12-12T06:14:00.337Z,99901.96
2022-12-12T06:16:31.808Z,99911.69
2022-12-12T06:18:59.978Z,99915.40
2022-12-12T06:21:30.317Z,99916.59
2022-12-12T06:23:58.501Z,99910.84
2022-12-12T06:26:26.824Z,99913.66
2022-12-12T06:28:55.962Z,99918.83
2022-12-12T06:31:24.059Z,99916.41
2022-12-12T06:33:52.274Z,99917.98
2022-12-12T06:36:24.637Z,99921.78
2022-12-12T06:38:58.392Z,99927.27
2022-12-12T06:41:30.142Z,99927.73
2022-12-12T06:43:58.136Z,99931.22
2022-12-12T06:46:28.277Z,99932.71
2022-12-12T06:48:57.068Z,99934.83
2022-12-12T06:51:29.074Z,99937.06
2022-12-12T06:53:57.017Z,99939.00
2022-12-12T06:56:26.659Z,99934.64
2022-12-12T06:58:55.191Z,99934.21
2022-12-12T07:01:23.899Z,99937.49
2022-12-12T07:03:52.930Z,99939.77
2022-12-12T07:06:23.592Z,99938.33
2022-12-12T07:08:52.424Z,99941.55
2022-12-12T07:11:23.116Z,99940.83
2022-12-12T07:13:54.396Z,99948.48
2022-12-12T07:16:22.968Z,99948.29
2022-12-12T07:18:50.820Z,99950.76
2022-12-12T07:21:20.191Z,99951.15
2022-12-12T07:23:48.678Z,99947.40
2022-12-12T07:26:19.360Z,99942.29
2022-12-12T07:28:48.029Z,99941.36
2022-12-12T07:31:18.720Z,99938.42
2022-12-12T07:33:46.997Z,99945.67
2022-12-12T07:36:16.107Z,99940.29
2022-12-12T07:38:45.092Z,99942.61
2022-12-12T07:41:15.399Z,99941.13
2022-12-12T07:43:45.949Z,99941.00
2022-12-12T07:46:18.451Z,99948.34
2022-12-12T07:48:47.226Z,99947.69
2022-12-12T07:51:18.560Z,99945.73
2022-12-12T07:53:46.919Z,99948.93
2022-12-12T07:56:16.654Z,99952.71
2022-12-12T07:58:45.747Z,99945.02
2022-12-12T08:01:24.245Z,99942.53
2022-12-12T08:03:54.397Z,99943.77
2022-12-12T08:06:24.278Z,99952.21
2022-12-12T08:08:53.254Z,99951.43
2022-12-12T08:11:23.931Z,99957.38
2022-12-12T08:13:53.384Z,99952.06
2022-12-12T08:16:24.484Z,99951.49
2022-12-12T08:18:57.426Z,99954.09
2022-12-12T08:21:26.848Z,99951.23
2022-12-12T08:23:57.145Z,99950.13
2022-12-12T08:26:26.194Z,99948.02
2022-12-12T08:28:55.281Z,99949.80
2022-12-12T08:31:24.008Z,99953.89
2022-12-12T08:33:52.196Z,99947.56
2022-12-12T08:36:25.735Z,99954.98
2022-12-12T08:38:53.691Z,99952.96
2022-12-12T08:41:22.225Z,99958.02
2022-12-12T08:43:50.774Z,99958.42
2022-12-12T08:46:20.071Z,99960.25
2022-12-12T08:48:48.563Z,99964.29
2022-12-12T08:51:17.274Z,99966.67
2022-12-12T08:53:47.334Z,99969.46
2022-12-12T08:56:16.895Z,99971.17
2022-12-12T08:58:44.920Z,99974.66
2022-12-12T09:01:15.146Z,99975.83
2022-12-12T09:03:43.439Z,99971.02
2022-12-12T09:06:12.096Z,99970.17
2022-12-12T09:08:41.237Z,99969.59
2022-12-12T09:11:09.576Z,99970.39
2022-12-12T09:13:38.587Z,99971.20
2022-12-12T09:16:09.043Z,99969.38
2022-12-12T09:18:41.992Z,99961.42
2022-12-12T09:21:14.340Z,99967.45
2022-12-12T09:23:42.396Z,99962.86
2022-12-12T09:26:11.053Z,99964.31
2022-12-12T09:28:40.259Z,99967.26
2022-12-12T09:31:10.287Z,99970.95
2022-12-12T09:33:41.801Z,99966.63
2022-12-12T09:36:13.973Z,99973.99
2022-12-12T09:38:42.388Z,99969.59
2022-12-12T09:41:10.642Z,99974.42
2022-12-12T09:43:45.401Z,99979.55
2022-12-12T09:46:28.659Z,99975.23
2022-12-12T09:49:03.678Z,99968.45
2022-12-12T09:51:31.792Z,99975.52
2022-12-12T09:54:00.664Z,99972.24
2022-12-12T09:56:48.449Z,99975.44
2022-12-12T09:59:24.129Z,99973.64
2022-12-12T10:02:01.838Z,99980.58
2022-12-12T10:04:40.405Z,99979.06
2022-12-12T10:07:26.402Z,99974.80
2022-12-12T10:10:08.606Z,99977.27
2022-12-12T10:12:38.152Z,99970.99
2022-12-12T10:15:13.322Z,99974.11
2022-12-12T10:17:48.489Z,99970.23
2022-12-12T10:20:29.668Z,99977.36
2022-12-12T10:23:07.574Z,99978.17
2022-12-12T10:25:57.613Z,99976.80
2022-12-12T10:28:27.879Z,99969.02
2022-12-12T10:31:26.019Z,99969.64
2022-12-12T10:34:24.875Z,99966.48
2022-12-12T10:37:11.478Z,99967.07
2022-12-12T10:40:04.082Z,99965.39
2022-12-12T10:42:49.303Z,99971.77
2022-12-12T10:45:30.628Z,99972.12
2022-12-12T10:47:58.920Z,99969.68
2022-12-12T10:50:41.955Z,99964.39
2022-12-12T10:53:12.591Z,99968.60
2022-12-12T10:55:53.742Z,99966.09
2022-12-12T10:58:27.319Z,99968.03
2022-12-12T11:01:04.746Z,99976.58
2022-12-12T11:03:36.295Z,99977.73
2022-12-12T11:06:10.598Z,99979.92
2022-12-12T11:08:39.288Z,99975.90
2022-12-12T11:11:10.442Z,99976.79
2022-12-12T11:13:45.403Z,99984.54
2022-12-12T11:16:17.931Z,99978.04
2022-12-12T11:19:02.096Z,99977.18
2022-12-12T11:21:33.831Z,99974.95
2022-12-12T11:24:08.161Z,99973.56
2022-12-12T11:26:45.155Z,99974.30
2022-12-12T11:29:26.719Z,99973.83
2022-12-12T11:31:55.775Z,99972.84
2022-12-12T11:34:27.093Z,99970.89
2022-12-12T11:36:56.184Z,99964.98
2022-12-12T11:39:28.477Z,99970.40
2022-12-12T11:42:03.319Z,99972.77
2022-12-12T11:44:37.299Z,99972.60
2022-12-12T11:47:38.832Z,99970.19
2022-12-12T11:50:26.109Z,99969.25
2022-12-12T11:53:01.855Z,99969.33
2022-12-12T11:55:39.851Z,99971.88
2022-12-12T11:58:15.604Z,99970.48
2022-12-12T12:01:07.604Z,99972.86
2022-12-12T12:03:48.105Z,99977.52
2022-12-12T12:06:35.099Z,99973.08
2022-12-12T12:09:22.833Z,99974.42
2022-12-12T12:12:01.376Z,99972.42
2022-12-12T12:15:06.957Z,99964.67
2022-12-12T12:18:04.178Z,99966.15
2022-12-12T12:21:00.953Z,99964.64
2022-12-12T12:23:43.325Z,99962.42
2022-12-12T12:26:29.984Z,99964.84
2022-12-12T12:29:12.300Z,99963.20
2022-12-12T12:31:52.360Z,99966.13
2022-12-12T12:34:52.607Z,99965.84
2022-12-12T12:37:32.633Z,99959.21
2022-12-12T12:40:19.894Z,99961.14
2022-12-12T12:43:04.587Z,99956.25
2022-12-12T12:45:32.514Z,99959.06
2022-12-12T12:48:19.791Z,99959.96
2022-12-12T12:51:05.200Z,99955.53
2022-12-12T12:54:00.031Z,99956.14
2022-12-12T12:56:43.867Z,99957.70
2022-12-12T12:59:27.913Z,99964.73
2022-12-12T13:02:41.532Z,99966.49
2022-12-12T13:05:27.455Z,99973.49
2022-12-12T13:08:05.789Z,99981.00
2022-12-12T13:10:38.459Z,99981.19
2022-12-12T13:13:23.840Z,99981.86
2022-12-12T13:15:57.049Z,99985.54
2022-12-12T13:18:33.342Z,99985.54
2022-12-12T13:21:32.512Z,99984.77
2022-12-12T13:24:28.372Z,99988.20
2022-12-12T13:27:21.204Z,99995.96
2022-12-12T13:30:20.012Z,100001.95
2022-12-12T13:33:03.105Z,99991.48
2022-12-12T13:35:35.841Z,99991.77
2022-12-12T13:38:05.323Z,99998.86
2022-12-12T13:40:42.505Z,99995.88
2022-12-12T13:43:41.619Z,100008.92
2022-12-12T13:46:21.636Z,100012.22
2022-12-12T13:49:19.116Z,100011.20
2022-12-12T13:51:47.462Z,100009.02
2022-12-12T13:54:15.787Z,100021.16
2022-12-12T13:56:47.629Z,100020.91
2022-12-12T13:59:27.758Z,100020.92
2022-12-12T14:01:57.963Z,100026.77
2022-12-12T14:04:33.940Z,100022.66
2022-12-12T14:07:12.687Z,100024.63
2022-12-12T14:09:48.764Z,100022.80
2022-12-12T14:12:29.236Z,100025.27
2022-12-12T14:15:05.653Z,100026.36
2022-12-12T14:17:42.144Z,100032.60
2022-12-12T14:20:30.635Z,100034.73
2022-12-12T14:23:23.757Z,100033.42
2022-12-12T14:25:52.602Z,100035.73
2022-12-12T14:28:28.253Z,100036.67
2022-12-12T14:31:09.429Z,100039.54
2022-12-12T14:33:55.594Z,100044.98
2022-12-12T14:36:42.876Z,100050.67
2022-12-12T14:39:28.833Z,100048.10
2022-12-12T14:41:58.036Z,100055.41
2022-12-12T14:44:37.164Z,100056.23
2022-12-12T14:47:08.065Z,100053.70
2022-12-12T14:49:36.691Z,100059.02
2022-12-12T14:52:05.201Z,100058.02
2022-12-12T14:54:33.162Z,100068.63
2022-12-12T14:57:04.294Z,100064.37
2022-12-12T14:59:36.713Z,100067.36
2022-12-12T15:02:30.715Z,100071.45
2022-12-12T15:05:05.610Z,100072.17
2022-12-12T15:07:41.622Z,100075.85
2022-12-12T15:10:25.767Z,100076.15
2022-12-12T15:12:56.717Z,100074.35
2022-12-12T15:18:18.857Z,100079.02
2022-12-12T15:20:47.197Z,100078.53
2022-12-12T15:23:20.531Z,100080.67
2022-12-12T15:25:56.403Z,100085.10
2022-12-12T15:28:25.789Z,100085.20
2022-12-12T15:30:57.775Z,100088.40
2022-12-12T15:33:29.230Z,100096.35
2022-12-12T15:36:05.486Z,100094.35
2022-12-12T15:38:34.588Z,100092.33
2022-12-12T15:41:09.516Z,100093.60
2022-12-12T15:43:43.257Z,100094.98
2022-12-12T15:46:15.969Z,100093.27
2022-12-12T15:48:52.576Z,100097.45
2022-12-12T15:51:25.355Z,100096.95
2022-12-12T15:53:57.611Z,100103.67
2022-12-12T15:56:29.403Z,100103.96
2022-12-12T15:59:16.779Z,100099.77
2022-12-12T16:01:45.380Z,100103.30
2022-12-12T16:04:13.373Z,100101.02
2022-12-12T16:06:46.065Z,100103.65
2022-12-12T16:09:22.606Z,100102.95
2022-12-12T16:11:58.819Z,100107.85
2022-12-12T16:14:27.580Z,100109.44
2022-12-12T16:17:15.786Z,100106.31
2022-12-12T16:20:07.484Z,100107.28
2022-12-12T16:22:46.566Z,100116.72
2022-12-12T16:25:25.746Z,100125.29
2022-12-12T16:28:25.331Z,100125.76
2022-12-12T16:31:00.972Z,100128.81
2022-12-12T16:33:38.024Z,100132.80
2022-12-12T16:36:09.812Z,100135.51
2022-12-12T16:38:40.251Z,100134.11
2022-12-12T16:41:14.074Z,100138.52
2022-12-12T16:43:42.355Z,100139.85
2022-12-12T16:46:22.090Z,100140.92
2022-12-12T16:48:52.124Z,100143.35
2022-12-12T16:51:33.367Z,100145.42
2022-12-12T16:54:02.868Z,100148.54
2022-12-12T16:56:31.956Z,100150.75
2022-12-12T16:59:00.545Z,100145.15
2022-12-12T17:01:30.631Z,100145.54
2022-12-12T17:04:01.758Z,100147.99
2022-12-12T17:06:29.919Z,100148.25
2022-12-12T17:08:58.053Z,100151.27
2022-12-12T17:11:27.000Z,100156.70
2022-12-12T17:13:56.391Z,100156.98
2022-12-12T17:16:28.321Z,100165.11
2022-12-12T17:18:56.655Z,100166.71
2022-12-12T17:21:28.834Z,100161.41
2022-12-12T17:23:59.327Z,100158.15
2022-12-12T17:26:28.804Z,100158.08
2022-12-12T17:28:58.905Z,100157.74
2022-12-12T17:31:29.208Z,100164.66
2022-12-12T17:33:59.365Z,100167.12
2022-12-12T17:36:31.729Z,100171.35
2022-12-12T17:39:02.616Z,100173.82
2022-12-12T17:41:30.807Z,100174.63
2022-12-12T17:44:00.795Z,100178.56
2022-12-12T17:46:32.939Z,100177.53
2022-12-12T17:49:02.170Z,100181.35
2022-12-12T17:51:32.243Z,100184.27
2022-12-12T17:54:01.071Z,100190.27
2022-12-12T17:56:29.677Z,100191.77
2022-12-12T17:59:00.021Z,100198.23
2022-12-12T18:01:32.022Z,100198.68
2022-12-12T18:04:02.909Z,100203.48
2022-12-12T18:06:33.936Z,100204.11
2022-12-12T18:09:04.147Z,100202.08
2022-12-12T18:11:35.715Z,100201.54
2022-12-12T18:14:06.642Z,100208.92
2022-12-12T18:16:36.328Z,100210.61
2022-12-12T18:19:05.160Z,100210.15
2022-12-12T18:24:29.497Z,100219.55
2022-12-12T18:27:00.528Z,100217.90
2022-12-12T18:29:28.841Z,100218.52
2022-12-12T18:31:57.651Z,100216.92
2022-12-12T18:34:32.429Z,100216.51
2022-12-12T19:02:24.910Z,100247.05
2022-12-12T19:04:53.503Z,100251.92
2022-12-12T19:07:21.075Z,100256.85
2022-12-12T19:09:47.837Z,100258.09
2022-12-12T19:12:14.791Z,100263.27
2022-12-12T19:15:07.925Z,100268.27
2022-12-12T19:17:44.689Z,100268.42
2022-12-12T19:20:17.386Z,100270.79
2022-12-12T19:22:46.889Z,100276.53
2022-12-12T19:25:17.314Z,100270.89
2022-12-12T19:27:49.353Z,100272.20
2022-12-12T19:30:57.064Z,100273.95
2022-12-12T19:33:27.184Z,100271.14
2022-12-12T19:35:57.664Z,100278.23
2022-12-12T19:38:40.035Z,100281.22
2022-12-12T19:41:08.631Z,100275.86
2022-12-12T19:43:36.056Z,100276.14
2022-12-12T19:46:18.696Z,100277.64
2022-12-12T19:48:48.828Z,100276.48
2022-12-12T19:51:22.607Z,100280.52
2022-12-12T19:53:56.889Z,100280.98
2022-12-12T19:56:30.718Z,100279.83
2022-12-12T19:59:02.380Z,100283.95
2022-12-12T20:01:32.712Z,100291.06
2022-12-12T20:04:05.917Z,100292.13
2022-12-12T20:06:44.583Z,100294.13
2022-12-12T20:09:15.264Z,100294.61
2022-12-12T20:11:44.956Z,100298.03
2022-12-12T20:14:14.884Z,100295.89
2022-12-12T20:16:42.948Z,100300.96
2022-12-12T20:19:10.846Z,100308.39
2022-12-12T20:24:54.060Z,100313.98
2022-12-12T20:27:24.596Z,100313.55
2022-12-12T20:29:52.703Z,100319.50
2022-12-12T20:32:23.484Z,100311.91
2022-12-12T20:34:53.116Z,100317.52
2022-12-12T20:37:21.044Z,100307.44
2022-12-12T20:39:48.227Z,100309.62
2022-12-12T20:42:17.783Z,100311.43
2022-12-12T20:44:47.337Z,100311.52
2022-12-12T20:47:16.869Z,100316.05
2022-12-12T20:49:44.748Z,100315.23
2022-12-12T20:52:13.386Z,100318.36
2022-12-12T20:54:40.981Z,100316.61
2022-12-12T20:57:08.012Z,100318.02
2022-12-12T20:59:35.243Z,100325.42
2022-12-12T21:02:02.181Z,100320.63
2022-12-12T21:04:31.392Z,100317.71
2022-12-12T21:07:01.550Z,100315.98
2022-12-12T21:09:28.569Z,100314.08
2022-12-12T21:11:57.163Z,100318.43
2022-12-12T21:14:29.984Z,100323.35
2022-12-12T21:16:56.933Z,100327.89
2022-12-12T21:19:23.868Z,100330.00
2022-12-12T21:21:51.530Z,100333.27
2022-12-12T21:24:19.481Z,100336.40
2022-12-12T21:26:47.294Z,100338.90
2022-12-12T21:29:14.963Z,100339.10
2022-12-12T21:31:49.956Z,100340.52
2022-12-12T21:34:18.392Z,100347.23
2022-12-12T21:36:45.328Z,100342.91
2022-12-12T21:39:12.414Z,100340.34
2022-12-12T21:41:41.343Z,100343.27
2022-12-12T21:44:09.109Z,100347.13
2022-12-12T21:46:35.979Z,100348.44
2022-12-12T21:49:21.339Z,100350.85
2022-12-12T21:51:48.019Z,100349.41
2022-12-12T21:54:14.864Z,100351.94
2022-12-12T21:56:41.774Z,100358.27
2022-12-12T21:59:10.391Z,100365.33
2022-12-12T22:01:36.912Z,100370.37
2022-12-12T22:04:04.028Z,100375.94
2022-12-12T22:06:33.380Z,100379.61
2022-12-12T22:09:03.468Z,100377.54
2022-12-12T22:11:41.567Z,100382.16
2022-12-12T22:14:18.635Z,100380.31
2022-12-12T22:16:45.595Z,100381.86
2022-12-12T22:19:14.340Z,100381.50
2022-12-12T22:21:43.133Z,100381.27
2022-12-12T22:24:10.365Z,100383.40
2022-12-12T22:26:40.378Z,100380.80
2022-12-12T22:29:10.549Z,100377.83
2022-12-12T22:31:38.929Z,100380.63
2022-12-12T22:34:16.463Z,100381.95
2022-12-12T22:36:43.830Z,100380.95
2022-12-12T22:39:27.116Z,100383.65
2022-12-12T22:41:54.778Z,100383.59
2022-12-12T22:44:22.941Z,100388.08
2022-12-12T22:46:51.367Z,100386.59
2022-12-12T22:49:21.697Z,100378.73
2022-12-12T22:51:48.749Z,100375.02
2022-12-12T22:54:15.707Z,100376.63
2022-12-12T22:56:42.380Z,100382.68
2022-12-12T22:59:12.078Z,100381.78
2022-12-12T23:01:39.756Z,100383.73
2022-12-12T23:04:07.012Z,100391.70
2022-12-12T23:06:35.425Z,100391.65
2022-12-12T23:09:08.016Z,100392.73
2022-12-12T23:11:36.078Z,100393.63
2022-12-12T23:14:07.845Z,100397.27
2022-12-12T23:16:34.889Z,100402.24
2022-12-12T23:19:06.595Z,100402.52
2022-12-12T23:21:35.611Z,100402.41
2022-12-12T23:24:03.426Z,100400.63
2022-12-12T23:26:31.111Z,100407.17
2022-12-12T23:28:58.589Z,100406.14
2022-12-12T23:31:27.977Z,100412.67
2022-12-12T23:33:56.922Z,100412.02
2022-12-12T23:36:24.279Z,100415.38
2022-12-12T23:39:03.234Z,100418.23
2022-12-12T23:41:29.771Z,100417.85
2022-12-12T23:43:56.473Z,100416.75
2022-12-12T23:46:28.851Z,100419.35
2022-12-12T23:49:05.678Z,100421.53
2022-12-12T23:51:35.689Z,100415.23
2022-12-12T23:54:04.880Z,100414.83
2022-12-12T23:56:31.915Z,100416.46
2022-12-12T23:58:59.335Z,100412.67
